< < Back
Terminal Aerodrome Forecast


Current Version              Previous Versions:   1  2  3  4  5  6  7  8  9  

Terminal Aerodrome Forecast

013
FTUS42 KGSP 010211 AAB
TAFHKY
TAF AMD
KHKY 010211Z 0102/0124 26013G18KT P6SM SKC
     FM010500 31005KT P6SM FEW050
     FM011000 01004KT P6SM SKC
     FM012000 15003KT P6SM FEW060=

Latest METAR

590
SAUS70 KWBC 011800 RRQ
MTRHKY
METAR KHKY 011753Z 07006KT 10SM CLR 21/M03 A3008 RMK AO2 SLP168
T02061033 10206 20117 57006


USA.gov is the U.S. government's official web portal to all federal, state and local government web resources and services.